Time;durP1;ratioP1;P1;durP2;ratioP2;P2;SDS_P1;SDS_P2;PMS_P1;PMS_P2;Temp;Humidity;BMP_temperature;BMP_pressure;BME280_temperature;BME280_humidity;BME280_pressure;Samples;Min_cycle;Max_cycle;Signal;HPM_P1;HPM_P2
2023/08/26 00:04:53;;;;;;;5.73;3.83;;;;;;;19.78;100.00;97468.25;18283716;32;20046;-56
2023/08/26 00:14:55;;;;;;;9.47;4.17;;;;;;;19.85;100.00;97465.81;18297767;32;20047;-56
2023/08/26 00:24:58;;;;;;;6.50;4.45;;;;;;;19.90;100.00;97467.56;18297145;32;20106;-56
2023/08/26 00:35:00;;;;;;;8.23;4.20;;;;;;;19.90;100.00;97460.12;18282740;32;20366;-56
2023/08/26 00:45:06;;;;;;;4.57;3.40;;;;;;;19.90;100.00;97460.12;18282719;32;20445;-56
2023/08/26 00:55:10;;;;;;;7.68;3.75;;;;;;;19.90;100.00;97460.12;18295766;32;20113;-57
2023/08/26 01:05:13;;;;;;;7.60;4.12;;;;;;;19.83;100.00;97468.09;18281637;32;20098;-56
2023/08/26 01:15:16;;;;;;;8.30;3.90;;;;;;;19.79;100.00;97476.16;18295497;32;20076;-56
2023/08/26 01:25:18;;;;;;;7.83;3.97;;;;;;;19.70;100.00;97475.41;18267738;32;20406;-56
2023/08/26 01:35:27;;;;;;;8.73;3.60;;;;;;;19.57;100.00;97493.75;18279939;32;20046;-56
2023/08/26 01:45:30;;;;;;;4.70;3.40;;;;;;;19.54;100.00;97490.88;18293571;32;20102;-56
2023/08/26 01:55:32;;;;;;;5.12;3.58;;;;;;;19.48;100.00;97504.75;18279738;32;20049;-56
2023/08/26 02:05:34;;;;;;;6.03;3.63;;;;;;;19.42;100.00;97510.81;18292716;32;20093;-56
2023/08/26 02:15:37;;;;;;;6.63;3.10;;;;;;;19.37;100.00;97508.25;18292710;32;20069;-56
2023/08/26 02:25:39;;;;;;;8.20;4.03;;;;;;;19.33;100.00;97512.78;18281323;32;20095;-56
2023/08/26 02:35:47;;;;;;;4.03;3.37;;;;;;;19.33;100.00;97502.59;18288805;32;20066;-56
2023/08/26 02:45:53;;;;;;;10.20;4.12;;;;;;;19.33;100.00;97523.75;18288189;32;20070;-56
2023/08/26 02:55:55;;;;;;;6.55;4.12;;;;;;;19.27;100.00;97514.91;18301469;32;20054;-56
2023/08/26 03:05:58;;;;;;;7.50;3.92;;;;;;;19.01;100.00;97518.59;18301085;32;20062;-55
2023/08/26 03:16:09;;;;;;;5.73;3.77;;;;;;;18.89;100.00;97511.03;18287210;32;20050;-56
2023/08/26 03:26:11;;;;;;;7.82;4.03;;;;;;;18.78;100.00;97515.25;18300212;32;20081;-56
2023/08/26 03:36:13;;;;;;;7.75;3.65;;;;;;;18.73;100.00;97523.66;18298554;32;20107;-56
2023/08/26 03:46:15;;;;;;;6.45;3.35;;;;;;;18.72;100.00;97519.28;18299159;32;20432;-57
2023/08/26 03:56:18;;;;;;;4.28;2.85;;;;;;;18.65;100.00;97517.09;18298810;32;20460;-56
2023/08/26 04:06:20;;;;;;;3.97;3.10;;;;;;;18.58;100.00;97506.63;18298032;32;20145;-56
2023/08/26 04:16:22;;;;;;;5.53;3.62;;;;;;;18.43;100.00;97504.41;18297802;32;20110;-57
2023/08/26 04:26:25;;;;;;;5.62;3.10;;;;;;;18.26;100.00;97499.78;18297166;32;20084;-57
2023/08/26 04:36:28;;;;;;;6.47;2.95;;;;;;;18.07;100.00;97502.84;18296369;32;20387;-56
2023/08/26 04:46:31;;;;;;;3.67;2.83;;;;;;;17.97;100.00;97528.59;18296130;32;20116;-56
2023/08/26 04:56:34;;;;;;;5.15;2.75;;;;;;;17.92;100.00;97546.00;18295807;32;20076;-57
2023/08/26 05:06:36;;;;;;;10.33;3.27;;;;;;;18.01;100.00;97558.88;18295471;32;20081;-56
2023/08/26 05:16:39;;;;;;;3.95;3.22;;;;;;;18.11;100.00;97558.53;18295057;32;20050;-57
2023/08/26 05:26:42;;;;;;;6.70;3.05;;;;;;;18.28;100.00;97544.84;18294537;32;20485;-56
2023/08/26 05:36:45;;;;;;;3.50;3.20;;;;;;;18.43;100.00;97548.19;18293965;32;20046;-56
2023/08/26 05:46:48;;;;;;;7.17;3.57;;;;;;;18.49;100.00;97541.44;18293950;32;20062;-56
2023/08/26 05:56:50;;;;;;;6.07;3.53;;;;;;;18.61;100.00;97544.31;18293420;32;20081;-56
2023/08/26 06:06:53;;;;;;;3.20;2.72;;;;;;;18.66;100.00;97556.22;18288883;32;20058;-56
2023/08/26 06:16:55;;;;;;;3.53;2.90;;;;;;;18.71;100.00;97569.75;18290219;32;20072;-56
2023/08/26 06:26:58;;;;;;;5.47;2.65;;;;;;;18.64;100.00;97572.97;18303160;32;20055;-57
2023/08/26 06:37:00;;;;;;;4.60;2.80;;;;;;;18.60;100.00;97556.38;18275884;32;20464;-56
2023/08/26 06:47:03;;;;;;;5.37;2.17;;;;;;;18.62;100.00;97550.56;18302133;32;20125;-56
2023/08/26 06:57:05;;;;;;;4.60;2.27;;;;;;;18.52;100.00;97559.16;18288499;32;20057;-56
2023/08/26 07:07:08;;;;;;;3.03;2.05;;;;;;;18.37;100.00;97549.50;18300978;32;20426;-57
2023/08/26 07:17:12;;;;;;;3.17;1.93;;;;;;;18.31;100.00;97561.72;18300268;32;20166;-56
2023/08/26 07:27:16;;;;;;;5.22;1.90;;;;;;;18.23;100.00;97560.63;18300079;32;20369;-57
2023/08/26 07:37:20;;;;;;;2.30;1.77;;;;;;;18.23;100.00;97527.78;18272678;32;20054;-57
2023/08/26 07:47:27;;;;;;;4.18;2.35;;;;;;;18.21;100.00;97530.84;18285241;32;20081;-57
2023/08/26 07:57:50;;;;;;;4.45;2.08;;;;;;;18.23;100.00;97545.00;18299231;32;20370;-57
2023/08/26 08:07:52;;;;;;;2.65;1.42;;;;;;;18.22;100.00;97570.75;18297963;32;20370;-57
2023/08/26 08:17:59;;;;;;;3.08;2.03;;;;;;;18.22;100.00;97557.06;18283845;32;20076;-57
2023/08/26 08:28:12;;;;;;;2.63;1.77;;;;;;;18.41;100.00;97543.06;18296642;32;20415;-57
2023/08/26 08:38:27;;;;;;;2.95;1.80;;;;;;;18.54;100.00;97549.47;18284390;32;20042;-56
2023/08/26 08:48:32;;;;;;;1.80;1.48;;;;;;;18.75;100.00;97554.25;18282595;32;20058;-56
2023/08/26 08:58:36;;;;;;;1.95;1.45;;;;;;;18.88;100.00;97542.31;18295904;32;20101;-57
2023/08/26 09:08:39;;;;;;;2.85;1.77;;;;;;;19.04;100.00;97515.19;18281218;32;20464;-57
2023/08/26 09:18:42;;;;;;;3.40;1.90;;;;;;;19.34;100.00;97539.06;18295042;32;20051;-56
2023/08/26 09:28:50;;;;;;;2.17;1.60;;;;;;;19.06;100.00;97564.16;18280503;32;20117;-58
2023/08/26 09:38:53;;;;;;;3.50;1.40;;;;;;;19.13;100.00;97553.53;18300160;32;20493;-57
2023/08/26 09:48:57;;;;;;;2.53;1.33;;;;;;;18.86;100.00;97604.81;18305132;32;20113;-56
2023/08/26 09:58:59;;;;;;;5.78;2.03;;;;;;;18.44;100.00;97627.25;18290550;32;20076;-56
2023/08/26 10:09:25;;;;;;;4.20;1.63;;;;;;;18.11;100.00;97613.25;18290119;32;20051;-56
2023/08/26 10:19:29;;;;;;;3.50;1.80;;;;;;;18.03;100.00;97592.16;18294267;32;20062;-56
2023/08/26 10:29:35;;;;;;;3.10;1.87;;;;;;;18.21;100.00;97571.91;18303097;32;20084;-57
2023/08/26 10:39:39;;;;;;;3.75;1.65;;;;;;;18.20;100.00;97589.44;18288931;32;20091;-56
2023/08/26 10:49:42;;;;;;;3.05;1.60;;;;;;;18.28;100.00;97623.41;18301739;32;20467;-56
2023/08/26 10:59:44;;;;;;;2.70;1.65;;;;;;;18.29;100.00;97605.84;18275098;32;20109;-56
2023/08/26 11:09:47;;;;;;;9.77;1.80;;;;;;;18.06;100.00;97644.31;18275007;32;20128;-56
2023/08/26 11:19:50;;;;;;;3.40;1.77;;;;;;;17.89;100.00;97605.97;18300823;32;20050;-56
2023/08/26 11:29:52;;;;;;;3.25;2.05;;;;;;;17.82;100.00;97609.16;18273773;32;20114;-56
2023/08/26 11:39:59;;;;;;;3.90;2.00;;;;;;;17.77;100.00;97606.56;18299370;32;20046;-56
2023/08/26 11:50:04;;;;;;;2.47;1.90;;;;;;;17.73;100.00;97606.44;18299052;32;20550;-56
2023/08/26 12:00:12;;;;;;;6.45;2.33;;;;;;;17.79;100.00;97560.59;18284384;32;20050;-56
2023/08/26 12:10:18;;;;;;;3.03;2.15;;;;;;;17.73;100.00;97553.66;18271564;32;20084;-56
2023/08/26 12:20:25;;;;;;;2.87;1.90;;;;;;;17.64;100.00;97610.25;18271329;32;20078;-55
2023/08/26 12:30:29;;;;;;;3.70;2.22;;;;;;;17.62;100.00;97602.38;18297284;32;20070;-56
2023/08/26 12:40:35;;;;;;;4.97;2.22;;;;;;;17.68;100.00;97605.75;18296714;32;20383;-56
2023/08/26 12:50:38;;;;;;;2.67;2.17;;;;;;;17.86;100.00;97591.00;18296030;32;20058;-56
2023/08/26 13:00:41;;;;;;;3.43;2.13;;;;;;;17.85;100.00;97600.31;18295862;32;20046;-56
2023/08/26 13:10:44;;;;;;;2.72;2.03;;;;;;;17.80;100.00;97625.06;18294910;32;20073;-56
2023/08/26 13:20:47;;;;;;;3.33;2.00;;;;;;;17.79;100.00;97577.78;18295387;32;20054;-56
2023/08/26 13:30:50;;;;;;;4.13;1.90;;;;;;;17.65;100.00;97573.59;18294424;32;20059;-56
2023/08/26 13:40:53;;;;;;;5.27;1.83;;;;;;;17.94;100.00;97571.09;18229978;32;20063;-56
2023/08/26 13:50:55;;;;;;;3.20;2.10;;;;;;;18.23;100.00;97516.84;18230849;32;20058;-56
2023/08/26 14:00:59;;;;;;;2.73;2.20;;;;;;;18.85;100.00;97490.09;18229441;32;20043;-56
2023/08/26 14:11:02;;;;;;;2.95;2.10;;;;;;;19.32;100.00;97495.50;18230018;32;20066;-56
2023/08/26 14:21:05;;;;;;;2.87;1.87;;;;;;;19.89;100.00;97485.94;18231746;32;20054;-57
2023/08/26 14:31:08;;;;;;;2.80;1.95;;;;;;;20.03;100.00;97474.69;18239768;32;20109;-56
2023/08/26 14:41:11;;;;;;;2.13;1.77;;;;;;;19.78;100.00;97495.69;18297891;32;20340;-56
2023/08/26 14:51:13;;;;;;;2.67;1.83;;;;;;;19.63;100.00;97499.84;18287946;32;20065;-56
2023/08/26 15:01:16;;;;;;;5.17;1.93;;;;;;;19.41;100.00;97544.84;18301688;32;20058;-56
2023/08/26 15:11:19;;;;;;;6.10;2.43;;;;;;;19.23;100.00;97533.94;18301122;32;20062;-56
2023/08/26 15:21:22;;;;;;;;;;;;;;;19.03;100.00;97543.69;18274501;32;20054;-56
2023/08/26 15:31:27;;;;;;;4.12;2.37;;;;;;;18.98;100.00;97549.38;18286722;32;19999;-56
2023/08/26 15:41:39;;;;;;;3.72;2.62;;;;;;;18.84;100.00;97541.31;18299631;32;20476;-56
2023/08/26 15:51:56;;;;;;;3.58;2.20;;;;;;;18.79;100.00;97538.78;18285563;32;20095;-56
2023/08/26 16:02:29;;;;;;;4.03;2.00;;;;;;;18.64;100.00;97526.41;18298764;32;20058;-56
2023/08/26 16:12:34;;;;;;;3.05;2.40;;;;;;;18.51;100.00;97527.41;18298119;32;20472;-56
2023/08/26 16:22:37;;;;;;;2.92;1.90;;;;;;;18.44;100.00;97531.44;18298517;32;20058;-56
2023/08/26 16:32:42;;;;;;;3.45;2.25;;;;;;;18.38;100.00;97523.75;18296568;32;20070;-56
2023/08/26 16:42:46;;;;;;;3.70;1.42;;;;;;;18.31;100.00;97516.03;18282850;32;20098;-56
2023/08/26 16:52:49;;;;;;;3.87;2.12;;;;;;;18.32;100.00;97522.28;18296017;32;20394;-56
2023/08/26 17:02:53;;;;;;;2.53;1.87;;;;;;;18.22;100.00;97535.19;18295767;32;20109;-56
2023/08/26 17:12:56;;;;;;;;;;;;;;;18.04;100.00;97512.50;18295522;32;20370;-56
2023/08/26 17:23:00;;;;;;;4.65;2.05;;;;;;;18.03;100.00;97524.56;18295499;32;19960;-56
2023/08/26 17:33:03;;;;;;;;;;;;;;;18.15;100.00;97512.97;18280402;32;20370;-56
2023/08/26 17:43:06;;;;;;;4.43;2.00;;;;;;;18.32;100.00;97528.56;18294491;32;20293;-56
2023/08/26 17:53:09;;;;;;;3.23;2.47;;;;;;;18.28;100.00;97511.19;18280133;32;20062;-57
2023/08/26 18:03:14;;;;;;;2.60;1.60;;;;;;;18.08;100.00;97526.34;18303401;32;20043;-57
2023/08/26 18:13:19;;;;;;;3.08;1.85;;;;;;;18.02;100.00;97539.41;18304184;32;20078;-56
2023/08/26 18:23:22;;;;;;;2.70;2.03;;;;;;;17.91;100.00;97530.69;18289621;32;20125;-55
2023/08/26 18:33:25;;;;;;;3.33;2.30;;;;;;;17.82;100.00;97537.28;18289127;32;20054;-56
2023/08/26 18:43:29;;;;;;;5.70;2.60;;;;;;;17.69;100.00;97528.91;18302617;32;20073;-56
2023/08/26 18:53:32;;;;;;;;;;;;;;;17.57;100.00;97524.03;18288684;32;20130;-56
2023/08/26 19:03:35;;;;;;;4.03;2.20;;;;;;;17.46;100.00;97522.75;18302021;32;19945;-56
2023/08/26 19:13:38;;;;;;;5.12;1.87;;;;;;;17.40;100.00;97519.38;18286900;32;20096;-56
2023/08/26 19:23:41;;;;;;;3.10;2.03;;;;;;;17.28;100.00;97506.31;18300800;32;20468;-56
2023/08/26 19:33:46;;;;;;;8.45;2.67;;;;;;;17.20;100.00;97507.09;18299868;32;20442;-56
2023/08/26 19:43:49;;;;;;;2.92;2.33;;;;;;;17.18;100.00;97512.06;18299627;32;20114;-56
2023/08/26 19:53:54;;;;;;;;;;;;;;;17.09;100.00;97505.78;18299399;32;20104;-56
2023/08/26 20:03:57;;;;;;;4.30;2.70;;;;;;;17.08;100.00;97479.59;18298862;32;19945;-56
2023/08/26 20:14:00;;;;;;;4.00;2.67;;;;;;;17.03;100.00;97477.78;18298048;32;20082;-56
2023/08/26 20:24:03;;;;;;;3.70;2.37;;;;;;;17.08;100.00;97474.91;18297051;32;20058;-56
2023/08/26 20:34:07;;;;;;;4.10;2.80;;;;;;;17.02;100.00;97464.44;18296927;32;20148;-56
2023/08/26 20:44:10;;;;;;;6.00;2.25;;;;;;;17.05;100.00;97477.50;18296752;32;20362;-57
2023/08/26 20:54:15;;;;;;;4.53;2.20;;;;;;;17.05;100.00;97469.28;18269673;32;20053;-56
2023/08/26 21:04:19;;;;;;;5.70;2.60;;;;;;;17.05;100.00;97440.03;18282493;32;20446;-56
2023/08/26 21:14:22;;;;;;;4.77;2.40;;;;;;;17.00;100.00;97434.72;18295382;32;20082;-56
2023/08/26 21:24:24;;;;;;;5.00;2.37;;;;;;;16.94;100.00;97411.44;18294939;32;20054;-56
2023/08/26 21:34:27;;;;;;;4.45;2.33;;;;;;;16.87;100.00;97391.91;18280854;32;20084;-56
2023/08/26 21:44:30;;;;;;;4.70;2.13;;;;;;;16.83;100.00;97390.94;18280626;32;20080;-56
2023/08/26 21:54:33;;;;;;;5.17;2.80;;;;;;;16.76;100.00;97397.69;18293493;32;20074;-57
2023/08/26 22:04:35;;;;;;;6.47;2.85;;;;;;;16.84;100.00;97387.09;18279995;32;20054;-57
2023/08/26 22:14:38;;;;;;;2.97;2.65;;;;;;;16.79;100.00;97385.34;18278917;32;20054;-56
2023/08/26 22:24:41;;;;;;;4.67;2.87;;;;;;;16.78;100.00;97381.00;18292650;32;20054;-57
2023/08/26 22:34:45;;;;;;;6.18;3.37;;;;;;;16.80;100.00;97378.75;18291545;32;20109;-57
2023/08/26 22:44:50;;;;;;;3.83;3.00;;;;;;;16.72;100.00;97395.94;18296762;32;20433;-57
2023/08/26 22:54:53;;;;;;;5.13;2.83;;;;;;;16.71;100.00;97369.75;18302029;32;20089;-56
2023/08/26 23:04:56;;;;;;;4.13;3.40;;;;;;;16.65;100.00;97358.16;18288024;32;20434;-56
2023/08/26 23:14:59;;;;;;;3.67;3.17;;;;;;;16.72;100.00;97342.13;18301076;32;20062;-56
2023/08/26 23:25:01;;;;;;;5.18;2.95;;;;;;;16.67;100.00;97298.59;18300625;32;20061;-56
2023/08/26 23:35:06;;;;;;;7.72;3.30;;;;;;;16.68;100.00;97346.59;18299547;32;20046;-57
2023/08/26 23:45:09;;;;;;;3.25;2.80;;;;;;;16.69;100.00;97355.59;18299581;32;20474;-57
2023/08/26 23:55:12;;;;;;;3.03;2.60;;;;;;;16.60;100.00;97372.75;18298636;32;20074;-56
